Time;durP1;ratioP1;P1;durP2;ratioP2;P2;SDS_P1;SDS_P2;PMS_P1;PMS_P2;Temp;Humidity;BMP_temperature;BMP_pressure;BME280_temperature;BME280_humidity;BME280_pressure;Samples;Min_cycle;Max_cycle;Signal;HPM_P1;HPM_P2
2023/04/23 00:00:51;;;;;;;120.20;50.83;;;;;;;16.62;54.08;100790.13;5030579;28;20511;-72
2023/04/23 00:03:19;;;;;;;116.03;52.43;;;;;;;16.47;55.65;100785.41;5043108;28;20049;-72
2023/04/23 00:05:46;;;;;;;125.27;52.73;;;;;;;16.59;54.15;100780.53;5030774;28;20017;-72
2023/04/23 00:08:12;;;;;;;119.23;50.13;;;;;;;17.04;51.95;100771.03;5028885;28;20040;-71
2023/04/23 00:10:38;;;;;;;114.53;49.50;;;;;;;16.38;55.79;100774.25;5030973;28;20076;-72
2023/04/23 00:13:07;;;;;;;119.03;52.73;;;;;;;16.10;56.36;100777.84;5049229;28;20437;-72
2023/04/23 00:15:32;;;;;;;122.87;50.60;;;;;;;16.03;56.49;100780.75;5069030;28;20039;-72
2023/04/23 00:17:58;;;;;;;123.40;51.13;;;;;;;16.22;56.66;100773.06;5047315;28;20037;-71
2023/04/23 00:20:23;;;;;;;114.33;50.57;;;;;;;16.39;55.03;100773.34;5059394;28;20024;-71
2023/04/23 00:22:48;;;;;;;116.27;51.00;;;;;;;17.02;53.71;100767.59;5049844;28;20082;-71
2023/04/23 00:25:14;;;;;;;111.10;49.17;;;;;;;16.72;55.49;100759.88;5049368;28;20021;-70
2023/04/23 00:27:39;;;;;;;124.80;52.40;;;;;;;16.34;55.44;100767.38;5048385;28;20028;-71
2023/04/23 00:30:05;;;;;;;123.93;52.20;;;;;;;16.59;55.70;100763.88;5052596;28;20481;-71
2023/04/23 00:32:31;;;;;;;113.93;51.37;;;;;;;16.22;57.18;100759.88;5030694;28;20028;-71
2023/04/23 00:34:56;;;;;;;119.93;52.77;;;;;;;16.23;57.61;100751.06;5028965;28;20033;-71
2023/04/23 00:37:21;;;;;;;122.03;52.00;;;;;;;16.31;57.64;100748.16;5029753;28;20025;-70
2023/04/23 00:39:47;;;;;;;120.67;52.67;;;;;;;16.32;57.41;100750.75;5045158;28;20032;-70
2023/04/23 00:42:13;;;;;;;120.10;54.37;;;;;;;16.36;56.65;100741.81;5048184;28;20028;-70
2023/04/23 00:44:40;;;;;;;117.90;53.97;;;;;;;16.51;55.88;100737.75;5036234;28;20032;-70
2023/04/23 00:47:06;;;;;;;121.90;54.87;;;;;;;16.65;55.91;100737.25;5029185;28;20393;-70
2023/04/23 00:49:36;;;;;;;118.93;51.37;;;;;;;16.02;56.90;100737.72;5045918;28;20036;-71
2023/04/23 00:52:04;;;;;;;116.63;51.47;;;;;;;16.41;56.80;100734.56;5067453;28;20492;-70
2023/04/23 00:54:30;;;;;;;127.27;53.10;;;;;;;16.03;58.02;100736.81;5037549;28;20030;-71
2023/04/23 00:56:58;;;;;;;128.73;53.47;;;;;;;16.39;56.14;100731.16;5029953;28;20036;-71
2023/04/23 00:59:29;;;;;;;125.63;53.20;;;;;;;15.65;59.24;100723.09;5030617;28;20641;-71
2023/04/23 01:01:55;;;;;;;125.23;52.70;;;;;;;16.01;58.09;100725.44;5047667;28;20036;-71
2023/04/23 01:04:21;;;;;;;137.03;56.47;;;;;;;16.68;56.50;100716.03;5045874;28;20029;-70
2023/04/23 01:06:47;;;;;;;123.47;53.47;;;;;;;16.88;55.76;100717.06;5027697;28;20034;-71
2023/04/23 01:09:14;;;;;;;118.90;53.73;;;;;;;16.53;55.81;100711.34;5037639;28;20039;-70
2023/04/23 01:11:42;;;;;;;121.47;52.73;;;;;;;15.89;58.02;100723.22;5060775;28;20068;-71
2023/04/23 01:14:08;;;;;;;123.07;51.80;;;;;;;17.31;54.61;100720.72;5047490;28;20063;-70
2023/04/23 01:16:35;;;;;;;111.47;50.50;;;;;;;16.88;55.23;100709.13;5049471;28;20029;-70
2023/04/23 01:19:01;;;;;;;118.67;51.97;;;;;;;16.95;55.41;100702.72;5048935;28;20032;-71
2023/04/23 01:21:27;;;;;;;110.00;51.03;;;;;;;17.19;54.44;100705.34;5046750;28;20033;-71
2023/04/23 01:23:53;;;;;;;105.83;50.73;;;;;;;16.15;58.63;100711.78;5033942;28;20025;-71
2023/04/23 01:26:20;;;;;;;115.47;51.03;;;;;;;17.13;54.57;100696.75;5046631;28;20094;-71
2023/04/23 01:28:46;;;;;;;107.77;50.10;;;;;;;15.77;59.05;100712.16;5046199;28;20027;-71
2023/04/23 01:31:13;;;;;;;113.30;49.23;;;;;;;16.32;57.29;100713.84;5067923;28;20032;-70
2023/04/23 01:33:39;;;;;;;107.90;50.33;;;;;;;16.23;58.75;100703.59;5058521;28;20094;-70
2023/04/23 01:36:06;;;;;;;110.40;49.33;;;;;;;16.14;57.98;100711.84;5037309;28;20029;-72
2023/04/23 01:38:33;;;;;;;120.77;51.13;;;;;;;17.05;56.06;100697.94;5036617;28;20378;-71
2023/04/23 01:40:58;;;;;;;109.90;49.67;;;;;;;16.38;55.95;100691.66;5064974;28;20102;-71
2023/04/23 01:43:24;;;;;;;110.83;51.03;;;;;;;16.81;55.85;100689.19;5048592;28;20024;-71
2023/04/23 01:45:50;;;;;;;108.00;50.53;;;;;;;16.49;57.04;100688.63;5047955;28;20033;-71
2023/04/23 01:48:16;;;;;;;111.40;50.13;;;;;;;17.19;53.71;100692.16;5048217;28;20029;-71
2023/04/23 01:50:42;;;;;;;108.50;48.87;;;;;;;17.12;53.84;100687.09;5060309;28;20326;-71
2023/04/23 01:53:07;;;;;;;102.53;48.93;;;;;;;17.08;54.60;100682.84;5048049;28;20135;-71
2023/04/23 01:55:36;;;;;;;106.63;47.63;;;;;;;17.63;52.80;100684.19;5033559;28;20112;-71
2023/04/23 01:58:02;;;;;;;108.23;48.43;;;;;;;17.61;52.98;100691.28;5029248;28;20025;-72
2023/04/23 02:00:27;;;;;;;104.00;46.90;;;;;;;17.67;52.72;100690.16;5041171;28;20504;-71
2023/04/23 02:02:53;;;;;;;97.77;47.10;;;;;;;17.04;55.16;100685.69;5041918;28;20029;-71
2023/04/23 02:05:19;;;;;;;95.13;44.67;;;;;;;17.74;53.01;100686.38;5045428;28;20451;-71
2023/04/23 02:07:46;;;;;;;89.57;44.20;;;;;;;17.52;52.51;100681.97;5033674;28;20428;-72
2023/04/23 02:10:11;;;;;;;95.00;44.70;;;;;;;18.10;51.62;100686.59;5052957;28;20060;-71
2023/04/23 02:12:37;;;;;;;89.47;43.10;;;;;;;17.29;53.42;100680.28;5041417;28;20072;-72
2023/04/23 02:15:07;;;;;;;90.17;44.70;;;;;;;16.71;54.86;100684.25;5031405;28;20044;-72
2023/04/23 02:17:32;;;;;;;84.97;42.07;;;;;;;17.32;54.25;100680.13;5041037;28;20443;-71
2023/04/23 02:19:58;;;;;;;74.67;38.70;;;;;;;16.92;55.53;100676.44;5048332;28;20037;-71
2023/04/23 02:22:25;;;;;;;72.97;36.97;;;;;;;17.18;53.84;100671.94;5041202;28;20167;-71
2023/04/23 02:24:51;;;;;;;72.10;37.03;;;;;;;17.17;53.75;100680.75;5051967;28;20045;-71
2023/04/23 02:27:18;;;;;;;69.17;36.87;;;;;;;17.66;53.30;100669.97;5050712;28;20060;-71
2023/04/23 02:29:43;;;;;;;75.63;37.13;;;;;;;17.86;52.53;100674.41;5059064;28;20032;-72
2023/04/23 02:32:09;;;;;;;67.63;34.80;;;;;;;17.46;53.75;100669.00;5048438;28;20378;-72
2023/04/23 02:34:34;;;;;;;69.53;35.67;;;;;;;17.39;53.95;100671.06;5035511;28;20121;-71
2023/04/23 02:37:00;;;;;;;64.20;34.50;;;;;;;17.54;53.18;100673.97;5032603;28;20021;-71
2023/04/23 02:39:25;;;;;;;59.63;34.63;;;;;;;16.94;54.09;100666.72;5039900;28;20107;-71
2023/04/23 02:41:51;;;;;;;56.20;31.03;;;;;;;17.32;54.38;100680.13;5072143;28;20482;-71
2023/04/23 02:44:16;;;;;;;54.10;31.40;;;;;;;16.14;57.91;100688.09;5051154;28;20036;-71
2023/04/23 02:46:41;;;;;;;58.77;33.23;;;;;;;16.63;56.66;100678.41;5042397;28;20044;-71
2023/04/23 02:49:07;;;;;;;58.10;33.00;;;;;;;16.81;55.29;100681.25;5052767;28;20041;-71
2023/04/23 02:51:32;;;;;;;53.97;31.63;;;;;;;17.30;54.57;100676.72;5052293;28;20490;-71
2023/04/23 02:53:58;;;;;;;53.37;32.07;;;;;;;16.70;56.80;100681.66;5030552;28;20049;-71
2023/04/23 02:56:23;;;;;;;55.37;32.60;;;;;;;16.69;56.23;100680.81;5030027;28;20578;-71
2023/04/23 02:58:49;;;;;;;54.67;31.67;;;;;;;17.10;54.64;100673.09;5030749;28;20095;-71
2023/04/23 03:01:14;;;;;;;54.17;32.07;;;;;;;17.08;54.57;100677.56;5056319;28;20025;-71
2023/04/23 03:03:40;;;;;;;54.03;31.53;;;;;;;16.85;55.47;100664.38;5050440;28;20461;-71
2023/04/23 03:06:06;;;;;;;51.10;29.77;;;;;;;17.52;53.94;100673.19;5053198;28;20438;-71
2023/04/23 03:08:32;;;;;;;55.87;32.00;;;;;;;17.09;54.88;100668.72;5045549;28;20029;-71
2023/04/23 03:10:57;;;;;;;50.73;30.37;;;;;;;17.55;53.11;100667.78;5035509;28;20516;-71
2023/04/23 03:13:24;;;;;;;52.07;30.33;;;;;;;17.41;53.29;100663.91;5038642;28;20037;-71
2023/04/23 03:15:51;;;;;;;52.43;31.10;;;;;;;17.52;52.44;100662.63;5039115;28;20554;-71
2023/04/23 03:18:17;;;;;;;49.27;31.20;;;;;;;17.46;53.27;100661.94;5038467;28;20028;-71
2023/04/23 03:20:42;;;;;;;52.13;30.10;;;;;;;17.71;51.66;100665.31;5048395;28;20495;-71
2023/04/23 03:23:08;;;;;;;49.40;29.37;;;;;;;17.12;53.18;100665.13;5050695;28;20032;-71
2023/04/23 03:25:33;;;;;;;52.07;30.53;;;;;;;17.18;54.03;100656.09;5060174;28;20032;-72
2023/04/23 03:27:59;;;;;;;54.23;31.60;;;;;;;17.29;53.54;100659.13;5036813;28;20037;-72
2023/04/23 03:30:26;;;;;;;50.10;30.00;;;;;;;17.66;52.39;100652.31;5046159;28;20061;-71
2023/04/23 03:32:53;;;;;;;48.87;29.47;;;;;;;17.79;52.04;100650.00;5031422;28;20061;-71
2023/04/23 03:35:18;;;;;;;52.20;31.33;;;;;;;17.93;50.83;100650.31;5039631;28;20083;-71
2023/04/23 03:37:44;;;;;;;49.13;29.40;;;;;;;17.97;50.90;100651.91;5050105;28;20554;-71
2023/04/23 03:40:09;;;;;;;52.43;29.63;;;;;;;18.27;50.57;100645.31;5033669;28;20040;-71
2023/04/23 03:42:35;;;;;;;48.33;29.30;;;;;;;18.00;51.15;100645.63;5048937;28;20393;-71
2023/04/23 03:45:00;;;;;;;48.17;28.97;;;;;;;17.37;52.64;100645.63;5055753;28;20086;-71
2023/04/23 03:47:26;;;;;;;54.67;30.37;;;;;;;17.93;50.80;100644.19;5069680;28;20059;-71
2023/04/23 03:49:52;;;;;;;47.43;29.20;;;;;;;17.66;51.45;100641.75;5036312;28;20032;-71
2023/04/23 03:52:18;;;;;;;45.73;27.87;;;;;;;17.66;52.38;100647.03;5042231;28;20383;-71
2023/04/23 03:54:43;;;;;;;47.27;29.77;;;;;;;17.86;51.79;100645.31;5035637;28;20033;-71
2023/04/23 03:57:08;;;;;;;46.73;28.30;;;;;;;18.03;51.22;100645.47;5047451;28;20517;-71
2023/04/23 03:59:34;;;;;;;47.97;29.50;;;;;;;17.48;52.90;100647.81;5030689;28;20037;-71
2023/04/23 04:02:02;;;;;;;48.83;29.77;;;;;;;16.89;53.38;100650.19;5029869;28;20120;-71
2023/04/23 04:04:28;;;;;;;47.13;28.87;;;;;;;17.45;52.61;100644.38;5036094;28;20044;-71
2023/04/23 04:06:53;;;;;;;49.00;29.33;;;;;;;17.58;52.17;100654.44;5062906;28;20017;-71
2023/04/23 04:09:18;;;;;;;48.53;29.73;;;;;;;18.08;50.72;100654.06;5048041;28;20029;-71
2023/04/23 04:11:44;;;;;;;48.90;28.67;;;;;;;17.15;52.86;100656.22;5049645;28;20040;-72
2023/04/23 04:14:09;;;;;;;46.03;28.80;;;;;;;17.55;52.33;100654.56;5043967;28;20045;-72
2023/04/23 04:16:35;;;;;;;47.83;28.70;;;;;;;16.80;54.25;100656.63;5064021;28;20040;-71
2023/04/23 04:19:00;;;;;;;45.60;28.20;;;;;;;17.03;53.28;100655.75;5057068;28;20116;-71
2023/04/23 04:21:27;;;;;;;46.30;29.00;;;;;;;16.67;54.78;100650.97;5049331;28;20503;-72
2023/04/23 04:23:52;;;;;;;51.43;29.73;;;;;;;16.67;55.02;100653.59;5047077;28;20106;-71
2023/04/23 04:26:17;;;;;;;52.00;29.83;;;;;;;17.08;53.75;100651.16;5028515;28;20493;-71
2023/04/23 04:28:44;;;;;;;51.77;30.77;;;;;;;17.04;52.79;100648.72;5029234;28;20115;-71
2023/04/23 04:31:09;;;;;;;49.93;29.97;;;;;;;17.32;51.61;100642.31;5027229;28;20033;-72
2023/04/23 04:33:35;;;;;;;54.23;30.07;;;;;;;17.75;50.94;100644.00;5028081;28;20086;-71
2023/04/23 04:36:00;;;;;;;51.43;31.50;;;;;;;17.45;52.17;100649.66;5029646;28;20033;-72
2023/04/23 04:38:27;;;;;;;52.80;29.70;;;;;;;17.40;51.79;100643.69;5027771;28;20025;-72
2023/04/23 04:40:59;;;;;;;50.63;29.80;;;;;;;17.29;52.09;100643.28;5028612;28;20026;-71
2023/04/23 04:43:25;;;;;;;52.80;30.58;;;;;;;17.07;52.72;100646.78;5029533;28;20041;-71
2023/04/23 04:45:50;;;;;;;51.37;30.10;;;;;;;17.04;53.50;100646.06;5040458;28;20025;-71
2023/04/23 04:48:16;;;;;;;51.80;31.13;;;;;;;17.32;52.55;100648.44;5040970;28;20059;-74
2023/04/23 04:50:41;;;;;;;52.07;31.60;;;;;;;17.04;52.56;100648.72;5047797;28;20061;-73
2023/04/23 04:53:07;;;;;;;48.93;30.27;;;;;;;17.55;51.55;100649.28;5047553;28;20452;-71
2023/04/23 04:55:32;;;;;;;50.23;29.83;;;;;;;16.71;53.93;100647.28;5056088;28;20484;-73
2023/04/23 04:57:57;;;;;;;51.33;30.90;;;;;;;17.45;51.79;100654.94;5044939;28;20033;-71
2023/04/23 05:00:27;;;;;;;51.93;31.07;;;;;;;16.30;54.98;100662.91;5048684;28;20035;-71
2023/04/23 05:02:52;;;;;;;53.30;30.07;;;;;;;17.12;53.44;100647.47;5049126;28;20032;-71
2023/04/23 05:05:19;;;;;;;49.97;29.87;;;;;;;16.97;53.38;100663.94;5051200;28;20016;-71
2023/04/23 05:07:44;;;;;;;48.37;28.67;;;;;;;17.20;53.42;100654.22;5058896;28;20083;-71
2023/04/23 05:10:10;;;;;;;53.03;29.63;;;;;;;15.78;57.78;100666.44;5047656;28;20029;-74
2023/04/23 05:12:36;;;;;;;51.60;30.80;;;;;;;16.23;57.15;100666.69;5027766;28;20115;-71
2023/04/23 05:15:03;;;;;;;56.20;30.90;;;;;;;16.14;58.21;100664.38;5031465;28;20063;-71
2023/04/23 05:17:28;;;;;;;48.13;29.63;;;;;;;17.30;54.99;100655.59;5046718;28;20127;-72
2023/04/23 05:19:54;;;;;;;49.03;30.07;;;;;;;17.28;55.12;100657.41;5035907;28;20104;-71
2023/04/23 05:22:19;;;;;;;47.67;29.27;;;;;;;17.01;55.22;100660.25;5027823;28;20033;-72
2023/04/23 05:24:45;;;;;;;52.00;31.07;;;;;;;16.77;56.44;100652.34;5046153;28;20029;-72
2023/04/23 05:27:11;;;;;;;57.53;31.10;;;;;;;16.90;56.88;100657.19;5067121;28;20028;-71
2023/04/23 05:29:36;;;;;;;50.90;29.47;;;;;;;16.27;58.59;100655.09;5054470;28;20084;-72
2023/04/23 05:32:02;;;;;;;49.63;29.77;;;;;;;16.32;60.15;100650.53;5043013;28;20527;-71
2023/04/23 05:34:27;;;;;;;51.50;30.93;;;;;;;16.76;57.69;100655.91;5046083;28;20025;-71
2023/04/23 05:36:52;;;;;;;53.73;29.80;;;;;;;16.55;57.91;100648.81;5066934;28;20028;-72
2023/04/23 05:39:18;;;;;;;46.20;29.70;;;;;;;16.82;56.85;100654.81;5049896;28;20162;-72
2023/04/23 05:41:43;;;;;;;52.97;31.07;;;;;;;16.78;57.28;100659.31;5037654;28;20440;-72
2023/04/23 05:44:08;;;;;;;48.60;29.97;;;;;;;17.23;55.93;100654.13;5027669;28;20113;-71
2023/04/23 05:46:34;;;;;;;48.40;29.27;;;;;;;16.84;57.71;100660.03;5046813;28;20461;-71
2023/04/23 05:48:59;;;;;;;52.00;29.67;;;;;;;17.38;57.00;100648.19;5032531;28;20029;-72
2023/04/23 05:51:26;;;;;;;49.03;30.10;;;;;;;17.72;54.80;100645.91;5036880;28;20053;-72
2023/04/23 05:53:51;;;;;;;52.93;31.07;;;;;;;17.49;53.78;100646.88;5044197;28;20035;-72
2023/04/23 05:56:17;;;;;;;49.20;29.57;;;;;;;17.43;55.31;100648.88;5055905;28;20028;-71
2023/04/23 05:58:42;;;;;;;49.47;30.47;;;;;;;17.69;54.76;100641.63;5031801;28;20022;-72
2023/04/23 06:01:08;;;;;;;48.37;28.90;;;;;;;17.79;54.50;100648.25;5031426;28;20067;-72
2023/04/23 06:03:34;;;;;;;48.80;29.73;;;;;;;17.23;57.60;100646.19;5042793;28;20408;-71
2023/04/23 06:05:59;;;;;;;46.93;28.70;;;;;;;17.51;54.36;100637.13;5053166;28;20497;-72
2023/04/23 06:08:24;;;;;;;46.57;28.80;;;;;;;17.02;56.88;100646.16;5051976;28;20033;-72
2023/04/23 06:10:50;;;;;;;49.30;29.27;;;;;;;17.34;56.53;100645.72;5045957;28;20029;-72
2023/04/23 06:13:15;;;;;;;45.63;27.00;;;;;;;17.59;56.71;100643.78;5050078;28;20033;-71
2023/04/23 06:15:40;;;;;;;44.27;27.83;;;;;;;17.26;56.90;100646.06;5057763;28;20089;-71
2023/04/23 06:18:06;;;;;;;46.53;27.97;;;;;;;17.18;58.55;100637.59;5053167;28;20029;-71
2023/04/23 06:20:31;;;;;;;48.13;28.03;;;;;;;17.08;57.88;100637.13;5052604;28;20493;-71
2023/04/23 06:22:57;;;;;;;41.53;25.67;;;;;;;16.83;61.00;100635.41;5052015;28;20025;-71
2023/04/23 06:25:22;;;;;;;41.33;25.10;;;;;;;16.72;60.49;100638.47;5049863;28;20017;-71
2023/04/23 06:27:47;;;;;;;38.50;25.50;;;;;;;17.55;57.72;100626.34;5051167;28;20074;-71
2023/04/23 06:30:13;;;;;;;37.13;24.17;;;;;;;17.06;58.81;100631.91;5036018;28;20032;-72
2023/04/23 06:32:38;;;;;;;34.47;22.67;;;;;;;17.88;57.18;100630.25;5038073;28;20025;-72
2023/04/23 06:35:05;;;;;;;39.43;22.97;;;;;;;17.92;55.54;100618.66;5036154;28;20085;-72
2023/04/23 06:37:31;;;;;;;34.40;22.33;;;;;;;17.52;57.27;100620.34;5071573;28;20495;-72
2023/04/23 06:39:58;;;;;;;37.80;21.37;;;;;;;17.81;55.94;100624.38;5043818;28;20034;-72
2023/04/23 06:42:23;;;;;;;38.70;21.83;;;;;;;18.70;54.42;100616.88;5031838;28;20337;-72
2023/04/23 06:44:50;;;;;;;31.50;20.97;;;;;;;18.57;53.65;100615.72;5056811;28;20029;-72
2023/04/23 06:47:15;;;;;;;32.83;20.57;;;;;;;18.37;55.80;100621.91;5043831;28;20075;-72
2023/04/23 06:49:41;;;;;;;32.03;20.27;;;;;;;18.38;56.62;100613.94;5044504;28;20487;-71
2023/04/23 06:52:06;;;;;;;31.77;20.60;;;;;;;18.06;56.48;100616.25;5051779;28;20045;-72
2023/04/23 06:54:31;;;;;;;33.70;18.23;;;;;;;18.06;56.61;100613.59;5070313;28;20508;-71
2023/04/23 06:56:58;;;;;;;24.73;16.20;;;;;;;18.28;56.74;100617.91;5060464;28;20127;-72
2023/04/23 06:59:23;;;;;;;25.73;15.27;;;;;;;17.89;57.36;100616.13;5041482;28;20038;-72
2023/04/23 07:01:49;;;;;;;23.60;14.67;;;;;;;18.75;55.79;100603.41;5037901;28;20063;-70
2023/04/23 07:04:14;;;;;;;23.90;14.57;;;;;;;18.73;54.47;100614.06;5061040;28;20407;-71
2023/04/23 07:06:40;;;;;;;24.93;15.20;;;;;;;18.37;55.24;100612.22;5051308;28;20028;-71
2023/04/23 07:09:06;;;;;;;22.17;13.23;;;;;;;18.39;57.13;100605.06;5051593;28;20060;-71
2023/04/23 07:11:33;;;;;;;22.30;13.17;;;;;;;18.56;55.81;100606.94;5046700;28;20037;-71
2023/04/23 07:13:59;;;;;;;21.03;13.47;;;;;;;19.98;52.95;100604.38;5052144;28;20024;-71
2023/04/23 07:16:24;;;;;;;20.33;13.20;;;;;;;21.56;48.86;100595.63;5050551;28;20491;-71
2023/04/23 07:18:50;;;;;;;18.30;12.10;;;;;;;22.97;44.31;100601.03;5060078;28;20025;-71
2023/04/23 07:21:15;;;;;;;16.60;10.32;;;;;;;23.08;44.44;100597.66;5049441;28;20456;-71
2023/04/23 07:23:41;;;;;;;13.38;8.25;;;;;;;23.07;42.29;100591.47;5048177;28;20431;-71
2023/04/23 07:26:06;;;;;;;14.50;8.63;;;;;;;23.20;43.54;100592.41;5048404;28;20158;-72
2023/04/23 07:28:31;;;;;;;13.88;7.85;;;;;;;24.03;40.91;100585.03;5036498;28;20038;-72
2023/04/23 07:30:57;;;;;;;12.93;7.25;;;;;;;23.23;41.83;100595.81;5031473;28;20133;-72
2023/04/23 07:33:23;;;;;;;12.82;6.65;;;;;;;23.61;40.37;100589.69;5053404;28;20504;-73
2023/04/23 07:35:48;;;;;;;11.57;6.43;;;;;;;24.67;38.90;100581.38;5050969;28;20511;-73
2023/04/23 07:38:14;;;;;;;14.13;6.55;;;;;;;24.41;38.71;100578.75;5050388;28;20028;-72
2023/04/23 07:40:39;;;;;;;14.20;6.45;;;;;;;24.52;38.18;100583.31;5047121;28;20033;-72
2023/04/23 07:43:04;;;;;;;9.95;6.35;;;;;;;25.76;37.42;100583.00;5045040;28;20032;-73
2023/04/23 07:45:30;;;;;;;12.00;6.15;;;;;;;27.19;34.04;100578.66;5029582;28;20036;-73
2023/04/23 07:47:56;;;;;;;12.40;5.63;;;;;;;27.06;34.60;100583.34;5029129;28;20029;-72
2023/04/23 07:50:21;;;;;;;11.00;6.25;;;;;;;26.98;34.67;100581.28;5036098;28;20480;-73
2023/04/23 07:52:47;;;;;;;12.88;6.32;;;;;;;26.27;35.54;100581.69;5052075;28;21401;-73
2023/04/23 07:55:12;;;;;;;10.73;5.78;;;;;;;28.20;32.20;100589.72;5042087;28;20045;-73
2023/04/23 07:57:37;;;;;;;12.30;5.43;;;;;;;28.11;32.78;100579.81;5038647;28;20075;-73
2023/04/23 08:00:08;;;;;;;14.15;6.03;;;;;;;27.92;32.69;100585.91;5048886;28;20587;-73
2023/04/23 08:02:33;;;;;;;14.82;6.13;;;;;;;26.40;34.26;100581.53;5052449;28;20067;-73
2023/04/23 08:04:59;;;;;;;13.68;5.90;;;;;;;27.14;34.31;100580.03;5040898;28;20041;-73
2023/04/23 08:07:25;;;;;;;17.13;5.97;;;;;;;27.58;32.80;100573.56;5044470;28;20060;-73
2023/04/23 08:09:50;;;;;;;13.10;5.22;;;;;;;27.66;32.03;100572.06;5042915;28;20064;-74
2023/04/23 08:12:16;;;;;;;18.70;6.85;;;;;;;26.00;34.64;100563.28;5048095;28;20017;-74
2023/04/23 08:14:42;;;;;;;11.15;5.88;;;;;;;25.64;35.72;100574.09;5048261;28;20484;-73
2023/04/23 08:17:07;;;;;;;11.57;5.30;;;;;;;27.46;32.65;100563.88;5049791;28;20029;-73
2023/04/23 08:19:33;;;;;;;12.82;5.30;;;;;;;27.05;33.16;100570.91;5038913;28;20064;-74
2023/04/23 08:21:58;;;;;;;9.35;4.78;;;;;;;27.48;32.27;100567.31;5046606;28;20546;-73
2023/04/23 08:24:24;;;;;;;7.82;4.63;;;;;;;27.10;33.57;100563.31;5045730;28;20021;-74
2023/04/23 08:26:50;;;;;;;12.82;4.90;;;;;;;28.37;31.44;100558.66;5047939;28;20074;-74
2023/04/23 08:29:16;;;;;;;6.43;4.50;;;;;;;28.07;31.69;100564.94;5048482;28;20059;-74
2023/04/23 08:31:41;;;;;;;13.38;4.63;;;;;;;28.07;31.73;100568.47;5038509;28;20125;-74
2023/04/23 08:34:07;;;;;;;12.63;5.10;;;;;;;27.28;32.58;100576.16;5039751;28;20033;-73
2023/04/23 08:36:32;;;;;;;9.05;4.63;;;;;;;28.43;31.97;100551.88;5045331;28;20469;-74
2023/04/23 08:38:59;;;;;;;11.63;5.10;;;;;;;28.16;31.83;100557.91;5046325;28;20056;-74
2023/04/23 08:41:29;;;;;;;12.00;4.68;;;;;;;28.07;31.60;100562.25;5051415;28;20020;-73
2023/04/23 08:44:11;;;;;;;14.10;4.20;;;;;;;28.95;30.69;100557.06;5047572;28;20021;-73
2023/04/23 08:46:41;;;;;;;15.35;4.65;;;;;;;29.31;30.97;100557.34;5036499;28;20037;-73
2023/04/23 08:49:08;;;;;;;9.63;3.85;;;;;;;28.22;31.44;100565.38;5043202;28;20032;-74
2023/04/23 08:51:37;;;;;;;8.13;3.40;;;;;;;28.70;31.22;100566.50;5034025;28;20644;-73
2023/04/23 08:54:05;;;;;;;10.10;4.30;;;;;;;29.67;30.02;100570.16;5037445;28;20482;-74
2023/04/23 08:56:31;;;;;;;10.23;4.60;;;;;;;29.19;30.40;100575.44;5043860;28;20484;-74
2023/04/23 08:58:57;;;;;;;14.07;4.15;;;;;;;29.66;30.62;100571.97;5047587;28;20035;-74
2023/04/23 09:01:23;;;;;;;9.52;3.72;;;;;;;28.86;30.87;100569.50;5047752;28;20029;-74
2023/04/23 09:03:51;;;;;;;14.18;4.20;;;;;;;29.15;30.95;100562.44;5048299;28;20035;-73
2023/04/23 09:06:18;;;;;;;8.98;3.85;;;;;;;29.57;30.72;100568.34;5048922;28;20032;-74
2023/04/23 09:08:44;;;;;;;13.00;3.90;;;;;;;28.06;32.04;100571.28;5048407;28;20021;-73
2023/04/23 09:11:09;;;;;;;10.75;4.38;;;;;;;28.08;32.28;100574.69;5046178;28;20040;-73
2023/04/23 09:13:35;;;;;;;10.80;3.55;;;;;;;29.01;30.97;100571.78;5049108;28;20036;-74
2023/04/23 09:16:01;;;;;;;13.85;4.25;;;;;;;28.79;31.36;100560.31;5049499;28;20021;-73
2023/04/23 09:18:26;;;;;;;12.27;4.47;;;;;;;28.14;32.07;100558.03;5048396;28;20030;-73
2023/04/23 09:20:52;;;;;;;10.15;3.85;;;;;;;27.78;32.90;100557.59;5047627;28;20401;-73
2023/04/23 09:23:21;;;;;;;7.95;3.80;;;;;;;27.01;32.54;100564.09;5060903;28;20066;-73
2023/04/23 09:25:46;;;;;;;7.60;3.75;;;;;;;24.73;36.06;100559.56;5048745;28;20033;-73
2023/04/23 09:28:13;;;;;;;9.18;4.25;;;;;;;25.57;35.33;100557.66;5049090;28;20028;-74
2023/04/23 09:30:43;;;;;;;8.13;3.88;;;;;;;26.89;34.32;100556.09;5048141;28;20033;-74
2023/04/23 09:33:15;;;;;;;8.95;4.32;;;;;;;26.77;33.92;100554.44;5051182;28;20036;-73
2023/04/23 09:35:42;;;;;;;12.27;4.77;;;;;;;25.75;35.44;100554.53;5068007;28;20024;-73
2023/04/23 09:38:09;;;;;;;14.57;5.88;;;;;;;27.45;33.21;100546.09;5051621;28;20295;-73
2023/04/23 09:40:35;;;;;;;9.93;4.90;;;;;;;27.74;33.29;100540.88;5049411;28;20456;-73
2023/04/23 09:43:04;;;;;;;16.05;5.70;;;;;;;26.95;34.19;100548.53;5049619;28;20029;-73
2023/04/23 09:45:31;;;;;;;9.27;5.00;;;;;;;27.13;33.02;100551.50;5057481;28;20419;-73
2023/04/23 09:47:57;;;;;;;18.25;5.97;;;;;;;27.38;33.95;100552.94;5042265;28;20508;-73
2023/04/23 09:50:35;;;;;;;14.80;5.30;;;;;;;27.81;33.05;100540.31;5027668;28;20028;-73
2023/04/23 09:53:01;;;;;;;9.93;4.00;;;;;;;25.93;35.01;100535.31;5027991;28;20528;-73
2023/04/23 09:55:41;;;;;;;9.85;4.35;;;;;;;27.95;32.80;100536.44;5042141;28;20036;-73
2023/04/23 09:58:11;;;;;;;10.68;3.95;;;;;;;27.79;32.69;100532.41;5045855;28;20036;-73
2023/04/23 10:00:38;;;;;;;11.50;3.50;;;;;;;27.99;31.64;100530.66;5042893;28;20039;-73
2023/04/23 10:03:08;;;;;;;10.40;3.30;;;;;;;26.39;34.18;100532.47;5049150;28;20060;-73
2023/04/23 10:05:41;;;;;;;12.77;3.28;;;;;;;26.21;34.09;100518.75;5044397;28;20028;-73
2023/04/23 10:08:07;;;;;;;16.48;3.03;;;;;;;26.11;34.79;100528.50;5026724;28;20037;-73
2023/04/23 10:10:34;;;;;;;9.73;3.28;;;;;;;25.57;34.98;100538.09;5041905;28;20145;-73
2023/04/23 10:12:59;;;;;;;9.35;3.83;;;;;;;25.28;35.79;100532.28;5051554;28;20052;-73
2023/04/23 10:15:25;;;;;;;9.82;3.08;;;;;;;24.02;38.67;100529.94;5047302;28;20465;-73
2023/04/23 10:17:52;;;;;;;10.52;3.00;;;;;;;23.56;37.91;100525.97;5061415;28;20097;-73
2023/04/23 10:20:19;;;;;;;11.10;2.85;;;;;;;25.31;35.59;100513.34;5037929;28;20029;-73
2023/04/23 10:22:45;;;;;;;8.38;2.03;;;;;;;24.88;35.07;100515.63;5035742;28;20485;-73
2023/04/23 10:25:11;;;;;;;11.70;3.90;;;;;;;24.29;37.18;100520.88;5038153;28;20044;-73
2023/04/23 10:27:42;;;;;;;7.90;2.58;;;;;;;24.87;36.58;100513.94;5044486;28;20393;-73
2023/04/23 10:30:09;;;;;;;8.25;2.30;;;;;;;23.49;38.49;100517.56;5052105;28;20044;-73
2023/04/23 10:32:36;;;;;;;7.80;2.90;;;;;;;24.12;37.11;100509.59;5051187;28;20024;-73
2023/04/23 10:35:01;;;;;;;7.60;2.65;;;;;;;25.19;35.53;100502.59;5054293;28;20051;-73
2023/04/23 10:37:27;;;;;;;29.50;3.55;;;;;;;26.14;34.49;100498.78;5050677;28;20503;-73
2023/04/23 10:39:55;;;;;;;15.35;3.03;;;;;;;24.54;35.99;100496.75;5052556;28;20039;-72
2023/04/23 10:42:22;;;;;;;10.15;2.80;;;;;;;23.24;37.74;100496.22;5050223;28;20185;-72
2023/04/23 10:44:48;;;;;;;9.65;2.08;;;;;;;24.95;35.68;100489.31;5033453;28;20025;-73
2023/04/23 10:47:15;;;;;;;8.18;2.17;;;;;;;25.31;35.35;100482.09;5057831;28;20463;-72
2023/04/23 10:49:41;;;;;;;8.77;2.50;;;;;;;25.54;34.79;100477.63;5071540;28;20468;-72
2023/04/23 10:52:13;;;;;;;8.05;2.10;;;;;;;25.85;35.17;100475.19;5071517;28;20058;-72
2023/04/23 10:54:40;;;;;;;10.57;2.10;;;;;;;26.54;33.23;100479.47;5044634;28;20512;-74
2023/04/23 10:57:06;;;;;;;6.45;1.77;;;;;;;24.33;35.47;100474.28;5050641;28;20032;-72
2023/04/23 10:59:34;;;;;;;11.05;1.90;;;;;;;25.23;34.49;100469.28;5072210;28;20028;-72
2023/04/23 11:02:10;;;;;;;11.45;2.08;;;;;;;25.21;34.27;100465.03;5070586;28;20028;-73
2023/04/23 11:04:43;;;;;;;6.25;1.90;;;;;;;25.23;34.50;100463.09;5046122;28;20087;-74
2023/04/23 11:07:10;;;;;;;10.77;2.28;;;;;;;25.18;34.61;100460.81;5058704;28;20139;-72